createdAt,value
2023-01-03T00:01:10.910Z,19.73
2023-01-03T00:03:38.129Z,20.80
2023-01-03T00:06:05.292Z,19.38
2023-01-03T00:08:32.546Z,19.23
2023-01-03T00:10:59.737Z,19.58
2023-01-03T00:13:26.878Z,22.20
2023-01-03T00:15:54.100Z,25.55
2023-01-03T00:18:21.262Z,19.30
2023-01-03T00:20:49.173Z,19.10
2023-01-03T00:23:16.241Z,17.67
2023-01-03T00:25:43.371Z,23.58
2023-01-03T00:28:10.532Z,23.88
2023-01-03T00:30:37.784Z,24.27
2023-01-03T00:33:04.899Z,22.95
2023-01-03T00:35:32.015Z,25.20
2023-01-03T00:37:59.202Z,22.83
2023-01-03T00:40:26.366Z,24.77
2023-01-03T00:43:12.105Z,22.67
2023-01-03T00:45:39.191Z,24.17
2023-01-03T00:48:06.374Z,25.00
2023-01-03T00:50:33.499Z,22.65
2023-01-03T00:53:00.627Z,20.27
2023-01-03T00:55:27.793Z,22.98
2023-01-03T00:57:55.087Z,24.33
2023-01-03T01:00:22.283Z,23.17
2023-01-03T01:02:49.631Z,23.05
2023-01-03T01:05:16.931Z,19.52
2023-01-03T01:07:44.486Z,20.15
2023-01-03T01:10:12.600Z,23.25
2023-01-03T01:12:39.945Z,28.73
2023-01-03T01:15:07.317Z,26.67
2023-01-03T01:17:34.442Z,22.55
2023-01-03T01:20:01.501Z,21.13
2023-01-03T01:22:28.590Z,22.15
2023-01-03T01:24:55.719Z,20.85
2023-01-03T01:27:22.976Z,25.63
2023-01-03T01:29:50.075Z,24.13
2023-01-03T01:32:17.159Z,26.55
2023-01-03T01:34:44.492Z,23.60
2023-01-03T01:37:11.600Z,21.42
2023-01-03T01:39:38.711Z,22.05
2023-01-03T01:42:30.509Z,22.27
2023-01-03T01:45:05.343Z,24.98
2023-01-03T01:47:35.425Z,25.52
2023-01-03T01:50:02.605Z,23.17
2023-01-03T01:52:30.890Z,22.67
2023-01-03T01:54:59.274Z,24.30
2023-01-03T01:57:27.763Z,22.98
2023-01-03T01:59:54.954Z,26.80
2023-01-03T02:02:23.050Z,24.80
2023-01-03T02:04:53.002Z,27.08
2023-01-03T02:07:22.144Z,22.88
2023-01-03T02:09:50.159Z,29.95
2023-01-03T02:12:54.141Z,28.08
2023-01-03T02:15:33.752Z,32.10
2023-01-03T02:18:07.137Z,29.30
2023-01-03T02:20:37.048Z,28.98
2023-01-03T02:23:27.177Z,27.17
2023-01-03T02:25:54.282Z,33.40
2023-01-03T02:28:28.898Z,31.75
2023-01-03T02:31:08.359Z,29.67
2023-01-03T02:33:42.003Z,36.53
2023-01-03T02:36:09.376Z,31.38
2023-01-03T02:38:42.814Z,29.42
2023-01-03T02:41:16.324Z,33.97
2023-01-03T02:43:53.481Z,32.30
2023-01-03T02:46:24.523Z,33.60
2023-01-03T02:48:55.006Z,33.05
2023-01-03T02:51:24.324Z,33.45
2023-01-03T02:53:51.659Z,35.22
2023-01-03T02:56:22.168Z,38.20
2023-01-03T02:58:52.213Z,37.15
2023-01-03T03:01:20.200Z,35.75
2023-01-03T03:03:47.697Z,34.33
2023-01-03T03:06:26.802Z,40.15
2023-01-03T03:08:54.015Z,37.67
2023-01-03T03:11:40.344Z,34.22
2023-01-03T03:14:09.418Z,44.88
2023-01-03T03:16:49.482Z,37.75
2023-01-03T03:19:47.311Z,44.30
2023-01-03T03:22:42.047Z,44.20
2023-01-03T03:25:29.875Z,43.30
2023-01-03T03:28:37.148Z,37.15
2023-01-03T03:31:12.882Z,42.47
2023-01-03T03:33:44.353Z,42.83
2023-01-03T03:36:34.149Z,37.85
2023-01-03T03:39:03.352Z,35.13
2023-01-03T03:42:00.999Z,39.10
2023-01-03T03:45:01.038Z,34.28
2023-01-03T03:47:36.409Z,42.75
2023-01-03T03:50:06.883Z,34.35
2023-01-03T03:52:35.084Z,35.00
2023-01-03T03:55:04.409Z,34.45
2023-01-03T03:57:40.701Z,39.22
2023-01-03T04:00:14.003Z,37.67
2023-01-03T04:02:43.032Z,36.85
2023-01-03T04:05:11.508Z,35.35
2023-01-03T04:07:40.065Z,39.95
2023-01-03T04:10:08.541Z,40.22
2023-01-03T04:12:35.966Z,37.67
2023-01-03T04:15:03.833Z,35.13
2023-01-03T04:17:30.994Z,35.45
2023-01-03T04:19:58.055Z,39.65
2023-01-03T04:22:25.180Z,37.42
2023-01-03T04:24:52.333Z,37.97
2023-01-03T04:27:19.576Z,41.58
2023-01-03T04:29:46.674Z,37.53
2023-01-03T04:32:13.880Z,34.97
2023-01-03T04:34:41.112Z,42.33
2023-01-03T04:37:08.194Z,40.38
2023-01-03T04:39:35.274Z,46.40
2023-01-03T04:42:22.328Z,37.25
2023-01-03T04:44:49.546Z,38.97
2023-01-03T04:47:16.779Z,38.45
2023-01-03T04:49:47.636Z,28.95
2023-01-03T04:52:15.809Z,39.65
2023-01-03T04:54:43.001Z,35.55
2023-01-03T04:57:10.262Z,36.38
2023-01-03T04:59:37.614Z,38.35
2023-01-03T05:02:05.281Z,47.25
2023-01-03T05:04:32.617Z,58.50
2023-01-03T05:06:59.725Z,43.55
2023-01-03T05:09:27.226Z,45.25
2023-01-03T05:11:54.406Z,42.78
2023-01-03T05:14:21.644Z,42.33
2023-01-03T05:16:48.933Z,35.10
2023-01-03T05:19:16.055Z,51.28
2023-01-03T05:22:01.581Z,37.75
2023-01-03T05:24:47.312Z,55.63
2023-01-03T05:27:14.391Z,32.03
2023-01-03T05:29:41.733Z,42.92
2023-01-03T05:32:08.892Z,45.88
2023-01-03T05:34:36.007Z,37.15
2023-01-03T05:37:03.161Z,35.53
2023-01-03T05:39:30.247Z,30.20
2023-01-03T05:42:01.196Z,44.97
2023-01-03T05:44:29.090Z,34.05
2023-01-03T05:46:56.172Z,61.42
2023-01-03T05:49:23.601Z,39.60
2023-01-03T05:51:50.731Z,56.53
2023-01-03T05:54:19.013Z,67.30
2023-01-03T05:56:46.259Z,36.15
2023-01-03T05:59:13.432Z,37.10
2023-01-03T06:01:40.927Z,72.30
2023-01-03T06:04:08.317Z,34.88
2023-01-03T06:06:35.537Z,57.97
2023-01-03T06:09:02.733Z,43.15
2023-01-03T06:11:29.827Z,65.45
2023-01-03T06:13:56.973Z,34.38
2023-01-03T06:16:43.141Z,41.60
2023-01-03T06:19:10.354Z,34.92
2023-01-03T06:21:38.139Z,44.38
2023-01-03T06:24:05.534Z,43.92
2023-01-03T06:26:32.907Z,49.30
2023-01-03T06:29:00.600Z,49.97
2023-01-03T06:31:28.172Z,36.28
2023-01-03T06:33:55.434Z,41.72
2023-01-03T06:36:23.051Z,69.03
2023-01-03T06:38:50.391Z,51.30
2023-01-03T06:41:17.479Z,53.33
2023-01-03T06:43:45.112Z,68.25
2023-01-03T06:46:31.962Z,62.05
2023-01-03T06:49:18.565Z,53.08
2023-01-03T06:52:06.293Z,51.03
2023-01-03T06:54:34.703Z,42.72
2023-01-03T06:57:03.762Z,43.20
2023-01-03T06:59:30.889Z,57.88
2023-01-03T07:01:58.157Z,50.47
2023-01-03T07:04:25.969Z,50.60
2023-01-03T07:06:53.269Z,43.83
2023-01-03T07:09:20.699Z,47.53
2023-01-03T07:11:47.867Z,49.45
2023-01-03T07:14:15.252Z,51.50
2023-01-03T07:16:43.718Z,49.22
2023-01-03T07:19:13.067Z,57.83
2023-01-03T07:21:40.226Z,54.45
2023-01-03T07:24:07.968Z,58.60
2023-01-03T07:26:35.761Z,59.35
2023-01-03T07:29:04.244Z,72.95
2023-01-03T07:31:32.704Z,64.82
2023-01-03T07:34:00.480Z,66.38
2023-01-03T07:36:27.897Z,70.90
2023-01-03T07:38:58.827Z,69.60
2023-01-03T07:41:46.333Z,70.68
2023-01-03T07:44:13.822Z,66.90
2023-01-03T07:46:41.069Z,55.80
2023-01-03T07:49:11.911Z,58.97
2023-01-03T07:51:40.499Z,59.47
2023-01-03T07:54:08.096Z,62.45
2023-01-03T07:56:35.378Z,62.20
2023-01-03T07:59:02.646Z,61.25
2023-01-03T08:01:30.480Z,55.42
2023-01-03T08:03:58.185Z,57.90
2023-01-03T08:06:25.469Z,59.63
2023-01-03T08:09:11.761Z,47.53
2023-01-03T08:11:58.039Z,48.40
2023-01-03T08:14:27.015Z,53.67
2023-01-03T08:16:54.992Z,52.70
2023-01-03T08:19:22.102Z,53.40
2023-01-03T08:21:49.246Z,63.13
2023-01-03T08:24:16.388Z,51.97
2023-01-03T08:26:43.503Z,51.92
2023-01-03T08:29:10.684Z,58.05
2023-01-03T08:31:39.812Z,58.90
2023-01-03T08:34:22.325Z,67.32
2023-01-03T08:36:58.042Z,73.15
2023-01-03T08:39:27.575Z,59.35
2023-01-03T08:41:57.947Z,59.45
2023-01-03T08:44:26.134Z,65.03
2023-01-03T08:46:55.047Z,64.25
2023-01-03T08:49:22.489Z,68.28
2023-01-03T08:51:49.579Z,60.10
2023-01-03T08:54:16.672Z,63.83
2023-01-03T08:56:43.783Z,62.58
2023-01-03T08:59:10.863Z,62.85
2023-01-03T09:01:38.047Z,67.78
2023-01-03T09:04:05.545Z,64.38
2023-01-03T09:06:34.102Z,66.50
2023-01-03T09:09:04.798Z,63.25
2023-01-03T09:11:31.902Z,65.68
2023-01-03T09:13:59.202Z,61.28
2023-01-03T09:16:26.398Z,61.33
2023-01-03T09:18:53.658Z,69.93
2023-01-03T09:21:20.866Z,62.45
2023-01-03T09:23:48.048Z,63.35
2023-01-03T09:26:15.221Z,72.93
2023-01-03T09:28:42.377Z,68.45
2023-01-03T09:31:09.554Z,65.75
2023-01-03T09:33:36.761Z,66.97
2023-01-03T09:36:04.013Z,71.90
2023-01-03T09:38:31.136Z,62.78
2023-01-03T09:41:09.673Z,66.22
2023-01-03T09:43:41.657Z,59.78
2023-01-03T09:46:23.063Z,62.47
2023-01-03T09:48:50.905Z,67.75
2023-01-03T09:51:45.927Z,66.63
2023-01-03T09:54:32.995Z,60.13
2023-01-03T09:57:23.177Z,58.83
2023-01-03T10:00:12.148Z,57.15
2023-01-03T10:03:13.261Z,63.08
2023-01-03T10:05:45.914Z,58.55
2023-01-03T10:10:56.322Z,53.15
2023-01-03T10:13:34.301Z,52.25
2023-01-03T10:16:06.454Z,54.15
2023-01-03T10:18:48.795Z,53.90
2023-01-03T10:21:15.908Z,49.75
2023-01-03T10:23:43.774Z,50.28
2023-01-03T10:26:12.074Z,49.55
2023-01-03T10:28:41.274Z,49.90
2023-01-03T10:31:08.755Z,48.47
2023-01-03T10:33:41.782Z,49.83
2023-01-03T10:36:09.584Z,46.97
2023-01-03T10:38:44.734Z,45.58
2023-01-03T10:41:34.249Z,44.70
2023-01-03T10:44:03.152Z,45.58
2023-01-03T10:46:31.146Z,46.40
2023-01-03T10:49:29.837Z,41.75
2023-01-03T10:52:00.943Z,38.88
2023-01-03T10:54:43.732Z,42.90
2023-01-03T10:59:49.038Z,39.28
2023-01-03T11:02:17.254Z,35.42
2023-01-03T11:04:44.689Z,37.78
2023-01-03T11:07:12.189Z,33.17
2023-01-03T11:09:50.443Z,31.63
2023-01-03T11:12:29.084Z,37.08
2023-01-03T11:14:57.282Z,28.88
2023-01-03T11:17:25.589Z,28.20
2023-01-03T11:19:53.596Z,32.60
2023-01-03T11:22:29.751Z,28.88
2023-01-03T11:24:59.450Z,32.25
2023-01-03T11:27:45.461Z,34.20
2023-01-03T11:30:21.917Z,30.20
2023-01-03T11:32:55.106Z,31.20
2023-01-03T11:35:33.064Z,29.25
2023-01-03T11:38:15.438Z,30.27
2023-01-03T11:41:01.552Z,25.80
2023-01-03T11:43:47.558Z,23.98
2023-01-03T11:46:32.872Z,27.48
2023-01-03T11:49:21.482Z,20.30
2023-01-03T11:52:07.327Z,22.00
2023-01-03T11:54:53.697Z,23.40
2023-01-03T11:57:41.363Z,25.83
2023-01-03T12:00:31.810Z,24.50
2023-01-03T12:03:08.420Z,18.50
2023-01-03T12:05:49.450Z,25.52
2023-01-03T12:08:33.324Z,25.08
2023-01-03T12:11:06.822Z,27.77
2023-01-03T12:13:56.613Z,20.05
2023-01-03T12:16:32.125Z,14.93
2023-01-03T12:19:04.509Z,18.77
2023-01-03T12:21:36.717Z,21.38
2023-01-03T12:24:16.102Z,19.35
2023-01-03T12:26:45.114Z,18.00
2023-01-03T12:29:14.848Z,30.27
2023-01-03T12:31:49.614Z,28.50
2023-01-03T12:34:19.471Z,24.75
2023-01-03T12:37:02.486Z,25.48
2023-01-03T12:39:41.838Z,25.05
2023-01-03T12:42:24.436Z,21.48
2023-01-03T12:44:57.241Z,25.08
2023-01-03T12:47:27.572Z,29.52
2023-01-03T12:50:02.277Z,20.55
2023-01-03T12:52:29.809Z,18.15
2023-01-03T12:55:00.628Z,17.23
2023-01-03T12:57:37.356Z,19.15
2023-01-03T13:00:17.709Z,30.10
2023-01-03T13:02:49.556Z,20.23
2023-01-03T13:05:30.804Z,16.45
2023-01-03T13:08:16.140Z,18.27
2023-01-03T13:10:44.399Z,17.30
2023-01-03T13:13:15.693Z,20.88
2023-01-03T13:15:42.919Z,18.50
2023-01-03T13:18:19.140Z,19.30
2023-01-03T13:20:50.160Z,19.88
2023-01-03T13:23:32.590Z,16.50
2023-01-03T13:26:19.999Z,21.70
2023-01-03T13:28:47.328Z,21.15
2023-01-03T13:31:14.626Z,19.25
2023-01-03T13:33:54.216Z,17.52
2023-01-03T13:36:21.648Z,19.38
2023-01-03T13:38:48.795Z,16.40
2023-01-03T13:41:34.670Z,14.90
2023-01-03T13:44:19.850Z,14.13
2023-01-03T13:46:47.557Z,16.48
2023-01-03T13:49:19.953Z,14.10
2023-01-03T13:51:48.515Z,17.02
2023-01-03T13:54:15.765Z,17.52
2023-01-03T13:56:45.814Z,18.58
2023-01-03T13:59:34.404Z,15.43
2023-01-03T14:02:10.234Z,14.23
2023-01-03T14:04:37.430Z,12.98
2023-01-03T14:07:07.808Z,16.30
2023-01-03T14:09:41.032Z,17.30
2023-01-03T14:12:14.263Z,15.48
2023-01-03T14:14:42.442Z,19.08
2023-01-03T14:17:22.256Z,17.08
2023-01-03T14:19:52.028Z,18.02
2023-01-03T14:22:29.419Z,17.58
2023-01-03T14:25:00.315Z,14.88
2023-01-03T14:27:35.976Z,14.40
2023-01-03T14:30:03.220Z,17.50
2023-01-03T14:32:34.666Z,15.32
2023-01-03T14:35:02.403Z,15.98
2023-01-03T14:37:30.181Z,13.68
2023-01-03T14:39:58.446Z,21.05
2023-01-03T14:42:26.047Z,19.33
2023-01-03T14:44:57.312Z,19.65
2023-01-03T14:47:29.520Z,15.98
2023-01-03T14:49:56.897Z,20.58
2023-01-03T14:52:30.065Z,16.90
2023-01-03T14:55:03.701Z,12.07
2023-01-03T14:57:31.599Z,15.68
2023-01-03T15:00:00.231Z,11.80
2023-01-03T15:02:28.792Z,15.40
2023-01-03T15:04:57.102Z,13.70
2023-01-03T15:07:43.352Z,17.35
2023-01-03T15:10:13.617Z,18.88
2023-01-03T15:12:43.595Z,11.13
2023-01-03T15:15:19.137Z,11.40
2023-01-03T15:17:47.881Z,10.70
2023-01-03T15:20:17.883Z,18.63
2023-01-03T15:22:45.194Z,15.27
2023-01-03T15:25:20.653Z,15.93
2023-01-03T15:27:49.881Z,16.10
2023-01-03T15:30:26.293Z,20.85
2023-01-03T15:32:54.919Z,12.38
2023-01-03T15:35:22.079Z,15.15
2023-01-03T15:37:52.910Z,12.30
2023-01-03T15:40:20.123Z,19.27
2023-01-03T15:43:06.113Z,17.60
2023-01-03T15:45:39.665Z,14.02
2023-01-03T15:48:13.949Z,18.27
2023-01-03T15:50:49.025Z,21.20
2023-01-03T15:53:22.337Z,11.50
2023-01-03T15:55:50.623Z,15.50
2023-01-03T15:58:17.811Z,15.80
2023-01-03T16:00:45.237Z,13.82
2023-01-03T16:03:19.392Z,15.27
2023-01-03T16:05:46.610Z,15.00
2023-01-03T16:08:33.445Z,12.15
2023-01-03T16:11:01.993Z,16.75
2023-01-03T16:13:30.304Z,14.02
2023-01-03T16:15:59.010Z,14.00
2023-01-03T16:18:33.045Z,13.68
2023-01-03T16:21:00.239Z,15.27
2023-01-03T16:23:29.386Z,12.07
2023-01-03T16:25:56.484Z,12.63
2023-01-03T16:28:24.188Z,13.57
2023-01-03T16:31:01.881Z,15.15
2023-01-03T16:33:31.144Z,13.05
2023-01-03T16:35:58.476Z,16.23
2023-01-03T16:38:25.662Z,14.50
2023-01-03T16:40:54.399Z,14.02
2023-01-03T16:43:21.905Z,11.48
2023-01-03T16:45:49.129Z,13.77
2023-01-03T16:48:17.461Z,11.93
2023-01-03T16:50:44.592Z,16.17
2023-01-03T16:53:18.666Z,13.45
2023-01-03T16:55:47.286Z,11.80
2023-01-03T16:58:15.866Z,13.38
2023-01-03T17:00:43.173Z,12.45
2023-01-03T17:03:10.338Z,14.65
2023-01-03T17:05:38.313Z,16.27
2023-01-03T17:08:07.393Z,15.55
2023-01-03T17:10:36.134Z,11.77
2023-01-03T17:13:08.566Z,14.82
2023-01-03T17:15:39.891Z,16.63
2023-01-03T17:18:07.029Z,19.77
2023-01-03T17:20:34.180Z,17.67
2023-01-03T17:23:01.291Z,16.02
2023-01-03T17:25:28.610Z,23.92
2023-01-03T17:27:57.504Z,13.88
2023-01-03T17:30:26.534Z,17.65
2023-01-03T17:32:53.731Z,18.98
2023-01-03T17:35:20.934Z,16.77
2023-01-03T17:40:35.296Z,13.32
2023-01-03T17:43:02.747Z,15.18
2023-01-03T17:45:49.199Z,12.65
2023-01-03T17:48:35.197Z,10.02
2023-01-03T17:51:02.932Z,11.90
2023-01-03T17:53:30.221Z,16.23
2023-01-03T17:55:57.380Z,12.02
2023-01-03T17:58:32.728Z,12.05
2023-01-03T18:01:00.149Z,11.50
2023-01-03T18:03:27.494Z,11.20
2023-01-03T18:05:55.953Z,10.77
2023-01-03T18:08:23.575Z,10.65
2023-01-03T18:10:53.928Z,10.10
2023-01-03T18:13:21.053Z,9.25
2023-01-03T18:15:48.402Z,8.68
2023-01-03T18:18:16.533Z,11.15
2023-01-03T18:20:43.843Z,9.93
2023-01-03T18:23:26.435Z,9.30
2023-01-03T18:25:54.167Z,8.00
2023-01-03T18:28:23.919Z,6.38
2023-01-03T18:30:51.080Z,8.75
2023-01-03T18:33:18.323Z,8.98
2023-01-03T18:35:45.798Z,5.78
2023-01-03T18:38:32.705Z,7.15
2023-01-03T18:41:05.099Z,7.30
2023-01-03T18:43:33.786Z,7.28
2023-01-03T18:46:01.104Z,12.15
2023-01-03T18:48:28.343Z,10.02
2023-01-03T18:50:59.329Z,4.82
2023-01-03T18:53:28.933Z,5.95
2023-01-03T18:55:56.379Z,6.72
2023-01-03T18:58:31.975Z,6.45
2023-01-03T19:00:59.475Z,10.02
2023-01-03T19:03:28.533Z,8.00
2023-01-03T19:05:56.254Z,9.20
2023-01-03T19:08:27.307Z,8.43
2023-01-03T19:10:54.603Z,6.78
2023-01-03T19:13:29.400Z,6.13
2023-01-03T19:15:56.762Z,4.38
2023-01-03T19:18:24.069Z,7.32
2023-01-03T19:20:51.419Z,8.55
2023-01-03T19:23:24.451Z,8.40
2023-01-03T19:25:51.916Z,14.27
2023-01-03T19:28:22.587Z,6.35
2023-01-03T19:30:49.857Z,13.32
2023-01-03T19:33:19.253Z,4.72
2023-01-03T19:35:46.741Z,4.63
2023-01-03T19:38:13.925Z,6.40
2023-01-03T19:40:41.805Z,12.10
2023-01-03T19:43:15.800Z,7.47
2023-01-03T19:45:42.933Z,11.15
2023-01-03T19:48:15.971Z,7.53
2023-01-03T19:50:43.226Z,9.18
2023-01-03T19:53:12.427Z,6.20
2023-01-03T19:55:44.790Z,9.05
2023-01-03T19:58:29.306Z,5.05
2023-01-03T20:00:56.782Z,9.30
2023-01-03T20:03:24.107Z,12.57
2023-01-03T20:05:51.436Z,6.10
2023-01-03T20:08:18.592Z,6.53
2023-01-03T20:10:45.806Z,9.68
2023-01-03T20:13:20.800Z,8.90
2023-01-03T20:15:49.540Z,6.20
2023-01-03T20:18:19.636Z,10.02
2023-01-03T20:20:46.927Z,6.80
2023-01-03T20:23:15.644Z,4.72
2023-01-03T20:25:43.611Z,8.10
2023-01-03T20:28:16.601Z,12.02
2023-01-03T20:30:43.776Z,10.50
2023-01-03T20:33:10.999Z,7.93
2023-01-03T20:36:09.497Z,7.25
2023-01-03T20:38:26.712Z,8.65
2023-01-03T20:40:54.607Z,7.97
2023-01-03T20:43:22.022Z,9.02
2023-01-03T20:45:51.173Z,12.07
2023-01-03T20:48:25.015Z,8.57
2023-01-03T20:50:53.407Z,10.75
2023-01-03T20:53:21.665Z,6.38
2023-01-03T20:55:48.955Z,21.08
2023-01-03T20:58:19.672Z,9.52
2023-01-03T21:00:46.887Z,6.80
2023-01-03T21:03:14.229Z,10.85
2023-01-03T21:05:41.477Z,8.13
2023-01-03T21:08:52.664Z,7.72
2023-01-03T21:11:19.802Z,5.38
2023-01-03T21:13:47.149Z,8.85
2023-01-03T21:16:27.222Z,9.63
2023-01-03T21:18:54.493Z,12.13
2023-01-03T21:21:23.446Z,9.73
2023-01-03T21:23:50.590Z,5.28
2023-01-03T21:26:17.801Z,5.85
2023-01-03T21:28:45.006Z,12.02
2023-01-03T21:31:19.138Z,9.00
2023-01-03T21:33:46.346Z,8.15
2023-01-03T21:36:21.080Z,9.57
2023-01-03T21:38:50.362Z,11.95
2023-01-03T21:41:23.088Z,5.20
2023-01-03T21:43:50.415Z,8.93
2023-01-03T21:46:18.424Z,8.50
2023-01-03T21:48:45.618Z,5.45
2023-01-03T21:51:13.674Z,9.98
2023-01-03T21:53:41.389Z,5.82
2023-01-03T21:56:09.376Z,12.27
2023-01-03T21:58:36.809Z,6.05
2023-01-03T22:01:11.274Z,10.45
2023-01-03T22:03:57.295Z,10.38
2023-01-03T22:06:24.717Z,8.05
2023-01-03T22:08:52.036Z,4.40
2023-01-03T22:11:19.541Z,9.88
2023-01-03T22:13:47.445Z,12.32
2023-01-03T22:16:14.747Z,6.15
2023-01-03T22:18:42.231Z,12.45
2023-01-03T22:21:10.571Z,10.25
2023-01-03T22:23:38.356Z,7.88
2023-01-03T22:26:07.294Z,8.98
2023-01-03T22:28:35.570Z,12.88
2023-01-03T22:31:02.886Z,7.85
2023-01-03T22:33:30.052Z,7.35
2023-01-03T22:35:58.499Z,10.30
2023-01-03T22:38:25.877Z,4.38
2023-01-03T22:40:52.951Z,5.55
2023-01-03T22:43:20.021Z,11.95
2023-01-03T22:45:47.191Z,10.70
2023-01-03T22:48:14.431Z,6.45
2023-01-03T22:50:41.653Z,8.05
2023-01-03T22:53:08.834Z,5.28
2023-01-03T22:55:35.991Z,6.30
2023-01-03T22:58:03.264Z,4.95
2023-01-03T23:00:30.430Z,7.15
2023-01-03T23:02:57.558Z,4.22
2023-01-03T23:05:24.699Z,7.97
2023-01-03T23:07:51.991Z,7.03
2023-01-03T23:10:19.120Z,6.00
2023-01-03T23:13:04.253Z,8.23
2023-01-03T23:15:32.855Z,5.28
2023-01-03T23:18:00.543Z,5.25
2023-01-03T23:20:27.704Z,4.57
2023-01-03T23:22:59.578Z,7.70
2023-01-03T23:25:27.270Z,6.90
2023-01-03T23:27:54.401Z,12.15
2023-01-03T23:30:21.591Z,6.10
2023-01-03T23:32:48.987Z,8.90
2023-01-03T23:35:18.330Z,7.93
2023-01-03T23:37:49.037Z,5.00
2023-01-03T23:40:16.375Z,7.57
2023-01-03T23:42:43.509Z,8.07
2023-01-03T23:45:10.733Z,5.72
2023-01-03T23:47:38.073Z,9.45
2023-01-03T23:50:05.357Z,13.80
2023-01-03T23:52:33.448Z,5.53
2023-01-03T23:55:05.109Z,5.47
2023-01-03T23:57:35.897Z,4.63
